Time;durP1;ratioP1;P1;durP2;ratioP2;P2;SDS_P1;SDS_P2;PMS_P1;PMS_P2;Temp;Humidity;BMP_temperature;BMP_pressure;BME280_temperature;BME280_humidity;BME280_pressure;Samples;Min_cycle;Max_cycle;Signal;HPM_P1;HPM_P2
2021/04/07 00:01:42;;;;;;;8.27;3.92;;;;;;;2.39;54.77;99381.97;5017993;28;20325;-62
2021/04/07 00:04:08;;;;;;;4.97;3.95;;;;;;;2.37;54.66;99383.53;5018448;28;20029;-63
2021/04/07 00:06:35;;;;;;;5.47;4.45;;;;;;;2.31;55.13;99385.03;5018138;28;20037;-62
2021/04/07 00:09:04;;;;;;;7.25;4.38;;;;;;;2.27;55.81;99392.47;5018373;28;20030;-63
2021/04/07 00:11:30;;;;;;;7.22;4.35;;;;;;;2.24;55.89;99396.81;5018220;28;20036;-63
2021/04/07 00:13:58;;;;;;;11.05;5.63;;;;;;;2.25;55.73;99389.28;5018279;28;20064;-63
2021/04/07 00:16:23;;;;;;;16.70;8.80;;;;;;;2.24;55.67;99390.47;5017887;28;20088;-63
2021/04/07 00:18:48;;;;;;;23.45;10.10;;;;;;;2.20;55.73;99397.91;5018032;28;20042;-63
2021/04/07 00:21:14;;;;;;;15.05;6.93;;;;;;;2.14;55.94;99398.19;5018113;28;20045;-62
2021/04/07 00:23:39;;;;;;;10.43;6.95;;;;;;;2.12;56.00;99406.09;5017168;28;20036;-64
2021/04/07 00:26:05;;;;;;;13.43;6.63;;;;;;;2.12;55.75;99405.28;5017932;28;20037;-63
2021/04/07 00:28:30;;;;;;;10.23;5.75;;;;;;;2.11;56.18;99410.03;5018008;28;20032;-61
2021/04/07 00:30:57;;;;;;;9.75;5.07;;;;;;;2.11;56.37;99404.50;5018074;28;20029;-66
2021/04/07 00:33:22;;;;;;;10.80;4.70;;;;;;;2.07;56.19;99403.63;5017813;28;20038;-64
2021/04/07 00:35:47;;;;;;;8.55;5.07;;;;;;;2.04;56.12;99414.66;5017779;28;20160;-61
2021/04/07 00:38:13;;;;;;;11.93;5.45;;;;;;;2.01;56.25;99404.31;5017903;28;20034;-64
2021/04/07 00:40:38;;;;;;;7.10;4.00;;;;;;;1.97;56.64;99409.00;5017497;28;20037;-64
2021/04/07 00:43:04;;;;;;;7.40;4.00;;;;;;;1.92;56.69;99406.50;5017757;28;20041;-62
2021/04/07 00:45:30;;;;;;;6.70;4.57;;;;;;;1.81;56.77;99411.88;5017536;28;20153;-64
2021/04/07 00:47:56;;;;;;;7.80;4.25;;;;;;;1.69;56.92;99400.97;5017792;28;20073;-62
2021/04/07 00:50:25;;;;;;;10.25;4.28;;;;;;;1.59;57.13;99407.91;5017370;28;20105;-64
2021/04/07 00:52:50;;;;;;;7.57;4.28;;;;;;;1.44;57.27;99412.38;5017425;28;20407;-63
2021/04/07 00:55:18;;;;;;;8.40;4.32;;;;;;;1.30;57.83;99414.03;5017632;28;20041;-62
2021/04/07 00:57:45;;;;;;;8.75;4.97;;;;;;;1.20;57.90;99412.66;5017310;28;20056;-59
2021/04/07 01:00:12;;;;;;;7.57;4.90;;;;;;;1.08;58.66;99407.25;5017718;28;20173;-58
2021/04/07 01:02:38;;;;;;;8.43;5.88;;;;;;;1.01;58.89;99407.09;5017328;28;20096;-63
2021/04/07 01:05:05;;;;;;;10.98;6.93;;;;;;;0.90;58.94;99407.69;5003499;28;20325;-64
2021/04/07 01:07:30;;;;;;;12.10;7.22;;;;;;;0.85;58.72;99413.50;5017354;28;20087;-63
2021/04/07 01:09:56;;;;;;;12.80;6.88;;;;;;;0.82;59.23;99411.47;5017232;28;20398;-64
2021/04/07 01:12:21;;;;;;;22.13;9.77;;;;;;;0.84;59.09;99411.91;5016398;28;20045;-64
2021/04/07 01:14:47;;;;;;;12.43;7.70;;;;;;;0.87;59.89;99419.47;5016842;28;20149;-64
2021/04/07 01:17:13;;;;;;;14.30;7.25;;;;;;;0.90;59.43;99406.88;5017123;28;20042;-63
2021/04/07 01:19:38;;;;;;;9.50;6.43;;;;;;;0.95;59.45;99408.56;5016743;28;20037;-64
2021/04/07 01:22:05;;;;;;;10.30;5.60;;;;;;;0.98;59.97;99403.09;5017095;28;20069;-62
2021/04/07 01:24:32;;;;;;;8.02;5.43;;;;;;;0.99;59.86;99409.44;4999729;28;20088;-64
2021/04/07 01:26:58;;;;;;;34.63;6.55;;;;;;;1.03;59.41;99411.09;5016023;28;20503;-64
2021/04/07 01:29:23;;;;;;;15.52;5.63;;;;;;;1.07;59.31;99411.97;4999429;28;20393;-64
2021/04/07 01:31:50;;;;;;;11.55;5.47;;;;;;;1.09;59.18;99408.84;5016854;28;20062;-64
2021/04/07 01:34:26;;;;;;;7.68;4.50;;;;;;;1.11;59.13;99414.84;5005559;28;20104;-63
2021/04/07 01:36:54;;;;;;;8.48;5.13;;;;;;;1.11;59.44;99414.84;4999292;28;20092;-64
2021/04/07 01:39:21;;;;;;;7.03;4.45;;;;;;;1.08;58.65;99412.78;5016906;28;20060;-62
2021/04/07 01:41:47;;;;;;;5.85;4.15;;;;;;;1.04;59.01;99412.72;5016276;28;20092;-62
2021/04/07 01:44:15;;;;;;;8.95;4.32;;;;;;;1.02;59.29;99408.69;5017033;28;20022;-64
2021/04/07 01:46:41;;;;;;;8.02;4.50;;;;;;;0.98;59.64;99416.13;5016816;28;20382;-62
2021/04/07 01:49:08;;;;;;;6.53;4.28;;;;;;;0.93;59.69;99420.00;5016047;28;20061;-60
2021/04/07 01:51:34;;;;;;;7.88;5.30;;;;;;;0.89;60.18;99416.34;5016582;28;20045;-61
2021/04/07 01:54:02;;;;;;;8.07;5.03;;;;;;;0.84;60.63;99420.19;5016717;28;20064;-62
2021/04/07 01:56:27;;;;;;;14.25;5.40;;;;;;;0.83;60.27;99423.31;5016347;28;20041;-62
2021/04/07 01:59:04;;;;;;;8.48;5.07;;;;;;;0.80;60.33;99427.59;5016770;28;20073;-61
2021/04/07 02:01:30;;;;;;;9.40;4.95;;;;;;;0.83;60.51;99421.38;5016228;28;20049;-64
2021/04/07 02:03:55;;;;;;;6.95;5.03;;;;;;;0.85;60.95;99421.81;5015970;28;20409;-63
2021/04/07 02:06:21;;;;;;;12.27;6.00;;;;;;;0.83;60.81;99424.13;5016330;28;20034;-63
2021/04/07 02:08:47;;;;;;;26.70;11.75;;;;;;;0.80;60.56;99413.75;5016347;28;20116;-62
2021/04/07 02:11:14;;;;;;;50.30;17.45;;;;;;;0.74;60.53;99409.69;5016007;28;20108;-64
2021/04/07 02:13:39;;;;;;;52.28;20.83;;;;;;;0.66;60.98;99410.69;5016002;28;20050;-62
2021/04/07 02:16:14;;;;;;;69.88;24.38;;;;;;;0.58;60.99;99400.63;5016246;28;20041;-63
2021/04/07 02:18:41;;;;;;;50.25;21.10;;;;;;;0.53;61.18;99415.50;4998297;28;20125;-61
2021/04/07 02:21:07;;;;;;;51.33;21.88;;;;;;;0.49;61.04;99417.41;4998924;28;20048;-60
2021/04/07 02:23:33;;;;;;;44.35;18.20;;;;;;;0.47;61.61;99414.19;5015855;28;20417;-62
2021/04/07 02:25:59;;;;;;;29.58;13.55;;;;;;;0.48;62.05;99420.53;5016028;28;20414;-63
2021/04/07 02:28:25;;;;;;;27.60;12.90;;;;;;;0.49;61.84;99417.41;5015962;28;20048;-62
2021/04/07 02:30:50;;;;;;;19.38;9.63;;;;;;;0.48;62.28;99420.53;5016090;28;20068;-63
2021/04/07 02:33:16;;;;;;;14.52;8.05;;;;;;;0.46;62.72;99420.06;5015564;28;20426;-63
2021/04/07 02:35:42;;;;;;;12.00;6.90;;;;;;;0.46;62.46;99422.84;5015878;28;20092;-62
2021/04/07 02:38:08;;;;;;;14.27;7.32;;;;;;;0.45;62.21;99435.06;4998378;28;20045;-62
2021/04/07 02:40:34;;;;;;;11.30;6.75;;;;;;;0.46;62.53;99429.16;5015559;28;20030;-63
2021/04/07 02:42:59;;;;;;;11.93;8.20;;;;;;;0.51;62.90;99433.63;5014018;28;20187;-61
2021/04/07 02:45:24;;;;;;;15.48;8.13;;;;;;;0.50;62.76;99432.00;5015683;28;20030;-62
2021/04/07 02:47:50;;;;;;;15.20;8.05;;;;;;;0.44;62.83;99441.75;5015812;28;20036;-62
2021/04/07 02:50:15;;;;;;;11.20;7.30;;;;;;;0.42;63.19;99457.91;5015521;28;20029;-61
2021/04/07 02:52:40;;;;;;;17.98;8.15;;;;;;;0.43;62.93;99459.50;5015821;28;20122;-60
2021/04/07 02:55:06;;;;;;;16.02;9.15;;;;;;;0.45;62.79;99457.19;5014570;28;20117;-64
2021/04/07 02:57:31;;;;;;;17.83;8.98;;;;;;;0.50;63.31;99465.19;5015736;28;20119;-63
2021/04/07 02:59:57;;;;;;;23.52;9.35;;;;;;;0.47;62.89;99463.16;5015366;28;20033;-63
2021/04/07 03:02:22;;;;;;;24.52;10.70;;;;;;;0.45;63.22;99463.50;5014599;28;20042;-61
2021/04/07 03:04:47;;;;;;;18.27;9.77;;;;;;;0.42;62.76;99466.19;5015886;28;20088;-61
2021/04/07 03:07:13;;;;;;;19.25;9.95;;;;;;;0.40;62.76;99472.06;5015418;28;20057;-61
2021/04/07 03:09:38;;;;;;;19.95;10.80;;;;;;;0.36;63.18;99473.16;5015654;28;20422;-62
2021/04/07 03:12:04;;;;;;;19.83;10.35;;;;;;;0.34;63.03;99476.28;5015599;28;20684;-64
2021/04/07 03:14:29;;;;;;;18.38;10.23;;;;;;;0.32;63.57;99475.03;5015348;28;20061;-62
2021/04/07 03:16:55;;;;;;;23.83;11.32;;;;;;;0.29;62.99;99477.34;5014953;28;20325;-64
2021/04/07 03:19:20;;;;;;;32.05;14.23;;;;;;;0.26;63.51;99485.53;5015680;28;20321;-64
2021/04/07 03:21:46;;;;;;;27.80;13.35;;;;;;;0.21;63.22;99492.13;5015737;28;20084;-63
2021/04/07 03:24:11;;;;;;;26.75;13.95;;;;;;;0.20;63.86;99489.72;5015452;28;20464;-61
2021/04/07 03:26:36;;;;;;;28.73;14.98;;;;;;;0.17;63.88;99487.66;5015462;28;20325;-63
2021/04/07 03:29:02;;;;;;;29.08;16.95;;;;;;;0.14;63.46;99497.47;5015433;28;20104;-63
2021/04/07 03:31:27;;;;;;;38.58;19.08;;;;;;;0.10;63.96;99496.56;5015092;28;20026;-64
2021/04/07 03:33:53;;;;;;;37.78;17.27;;;;;;;0.08;64.20;99489.81;5013949;28;20046;-63
2021/04/07 03:36:18;;;;;;;42.75;16.52;;;;;;;0.06;63.96;99498.44;5016165;28;20121;-62
2021/04/07 03:38:43;;;;;;;33.83;15.40;;;;;;;0.04;64.29;99500.75;5018887;28;20062;-62
2021/04/07 03:41:09;;;;;;;28.33;12.73;;;;;;;0.05;63.98;99494.09;5018648;28;20030;-62
2021/04/07 03:43:34;;;;;;;25.92;12.25;;;;;;;0.03;63.40;99499.16;5018958;28;20034;-63
2021/04/07 03:46:00;;;;;;;19.05;11.68;;;;;;;0.03;63.68;99512.16;5018467;28;20044;-63
2021/04/07 03:48:28;;;;;;;22.48;11.10;;;;;;;-0.01;63.80;99509.28;5018803;28;20040;-62
2021/04/07 03:50:54;;;;;;;20.85;10.45;;;;;;;-0.05;63.82;99506.44;5018641;28;20375;-63
2021/04/07 03:53:20;;;;;;;23.27;11.23;;;;;;;-0.07;63.96;99516.22;5018751;28;20105;-63
2021/04/07 03:55:49;;;;;;;20.75;10.90;;;;;;;-0.08;64.05;99515.44;5019021;28;20068;-56
2021/04/07 03:58:15;;;;;;;18.52;10.25;;;;;;;-0.09;64.40;99513.81;5000826;28;20327;-63
2021/04/07 04:00:40;;;;;;;17.02;8.38;;;;;;;-0.09;64.65;99516.59;5018778;28;20038;-63
2021/04/07 04:03:07;;;;;;;16.42;9.30;;;;;;;-0.09;64.62;99524.88;5018355;28;20026;-63
2021/04/07 04:05:33;;;;;;;19.17;10.00;;;;;;;-0.11;63.76;99518.09;5018666;28;20058;-62
2021/04/07 04:07:58;;;;;;;23.67;10.40;;;;;;;-0.12;64.27;99519.25;5018591;28;20030;-62
2021/04/07 04:10:24;;;;;;;18.73;10.65;;;;;;;-0.15;64.36;99531.81;5000825;28;20417;-64
2021/04/07 04:12:49;;;;;;;22.17;10.95;;;;;;;-0.22;64.40;99519.78;5017963;28;20081;-62
2021/04/07 04:15:15;;;;;;;51.63;21.60;;;;;;;-0.25;64.22;99523.25;5018300;28;20037;-61
2021/04/07 04:17:42;;;;;;;83.10;29.25;;;;;;;-0.27;64.94;99526.34;5018150;28;20037;-62
2021/04/07 04:20:10;;;;;;;73.47;24.50;;;;;;;-0.34;65.36;99537.97;5018132;28;20036;-63
2021/04/07 04:22:35;;;;;;;50.08;24.40;;;;;;;-0.35;65.43;99533.59;5018472;28;20112;-63
2021/04/07 04:25:02;;;;;;;48.65;24.52;;;;;;;-0.37;65.44;99535.91;5018138;28;20406;-63
2021/04/07 04:27:28;;;;;;;50.28;24.30;;;;;;;-0.35;65.10;99538.31;4999421;28;20065;-62
2021/04/07 04:29:53;;;;;;;34.35;17.30;;;;;;;-0.35;65.34;99543.84;5000582;28;20128;-62
2021/04/07 04:32:18;;;;;;;39.80;19.20;;;;;;;-0.32;66.21;99540.38;5017739;28;20041;-63
2021/04/07 04:34:44;;;;;;;44.38;19.13;;;;;;;-0.31;65.83;99548.31;5018025;28;20406;-63
2021/04/07 04:37:09;;;;;;;35.70;16.73;;;;;;;-0.27;66.12;99545.69;5017753;28;20368;-62
2021/04/07 04:39:35;;;;;;;37.58;16.98;;;;;;;-0.24;65.98;99555.22;5018044;28;20032;-63
2021/04/07 04:42:01;;;;;;;44.28;21.02;;;;;;;-0.25;66.11;99556.38;5016654;28;20104;-64
2021/04/07 04:44:26;;;;;;;64.30;22.60;;;;;;;-0.25;66.56;99545.31;5017624;28;20326;-64
2021/04/07 04:46:52;;;;;;;55.13;23.73;;;;;;;-0.23;66.28;99554.88;5017708;28;20037;-61
2021/04/07 04:49:18;;;;;;;47.60;21.58;;;;;;;-0.19;66.43;99557.72;5017252;28;20088;-64
2021/04/07 04:51:43;;;;;;;42.22;19.10;;;;;;;-0.13;66.48;99561.84;5017862;28;20037;-59
2021/04/07 04:54:08;;;;;;;32.97;15.98;;;;;;;-0.09;67.02;99557.22;5017645;28;20045;-63
2021/04/07 04:56:37;;;;;;;26.05;12.57;;;;;;;-0.06;66.85;99562.03;5017100;28;20113;-63
2021/04/07 04:59:02;;;;;;;34.92;14.85;;;;;;;0.01;67.12;99570.53;5017274;28;20034;-63
2021/04/07 05:01:28;;;;;;;41.70;21.13;;;;;;;0.11;66.40;99571.97;5009795;28;20333;-63
2021/04/07 05:03:53;;;;;;;32.65;17.45;;;;;;;0.22;66.64;99564.78;5017261;28;20384;-63
2021/04/07 05:06:18;;;;;;;27.95;16.20;;;;;;;0.28;66.91;99569.72;5017368;28;20034;-63
2021/04/07 05:08:48;;;;;;;20.95;13.93;;;;;;;0.37;66.69;99577.03;5017200;28;20495;-61
2021/04/07 05:11:13;;;;;;;28.02;13.18;;;;;;;0.47;66.14;99582.84;5017086;28;20034;-62
2021/04/07 05:13:39;;;;;;;28.88;13.73;;;;;;;0.57;66.17;99590.63;4999421;28;20045;-63
2021/04/07 05:16:05;;;;;;;25.42;14.27;;;;;;;0.68;66.00;99590.91;5017209;28;20063;-63
2021/04/07 05:18:30;;;;;;;29.90;14.48;;;;;;;0.79;65.57;99593.91;5016988;28;20034;-63
2021/04/07 05:20:55;;;;;;;32.92;16.00;;;;;;;0.90;66.21;99584.75;5016983;28;20048;-62
2021/04/07 05:23:21;;;;;;;26.27;13.50;;;;;;;1.01;65.48;99581.44;5017213;28;20422;-62
2021/04/07 05:25:46;;;;;;;22.17;12.55;;;;;;;1.10;65.28;99585.63;5016877;28;20131;-63
2021/04/07 05:28:11;;;;;;;17.10;10.68;;;;;;;1.23;64.93;99594.63;5015822;28;20041;-63
2021/04/07 05:33:22;;;;;;;24.58;13.30;;;;;;;1.48;64.93;99593.22;5009325;28;20045;-61
2021/04/07 05:35:48;;;;;;;29.52;14.73;;;;;;;1.59;64.32;99599.00;5015259;28;20422;-63
2021/04/07 05:38:13;;;;;;;25.80;14.27;;;;;;;1.69;64.42;99603.19;5016698;28;20037;-61
2021/04/07 05:40:41;;;;;;;19.10;11.43;;;;;;;1.80;64.59;99591.16;5016324;28;20053;-65
2021/04/07 05:43:07;;;;;;;16.77;9.48;;;;;;;1.89;64.48;99585.41;5016759;28;20440;-63
2021/04/07 05:45:37;;;;;;;12.23;7.85;;;;;;;2.00;64.16;99597.53;5016796;28;20085;-59
2021/04/07 05:48:03;;;;;;;12.45;8.95;;;;;;;2.10;63.79;99596.94;5016665;28;20034;-63
2021/04/07 05:50:28;;;;;;;14.40;8.15;;;;;;;2.22;63.89;99604.31;5016397;28;20044;-63
2021/04/07 05:52:53;;;;;;;12.93;7.55;;;;;;;2.34;64.00;99598.59;5016331;28;20030;-61
2021/04/07 05:55:19;;;;;;;12.75;7.85;;;;;;;2.46;63.48;99605.94;5016306;28;20030;-62
2021/04/07 05:58:15;;;;;;;14.23;7.47;;;;;;;2.59;63.84;99606.59;5012359;28;20041;-60
2021/04/07 06:00:42;;;;;;;14.70;7.53;;;;;;;2.75;63.16;99610.88;5015699;28;20414;-63
2021/04/07 06:03:08;;;;;;;11.77;7.32;;;;;;;2.89;63.55;99609.50;5015580;28;20134;-63
2021/04/07 06:05:37;;;;;;;13.10;7.50;;;;;;;2.97;63.35;99611.22;5015947;28;20037;-62
2021/04/07 06:08:03;;;;;;;21.35;10.82;;;;;;;3.11;62.78;99617.03;4992521;28;20460;-60
2021/04/07 06:10:32;;;;;;;10.82;6.80;;;;;;;3.22;63.01;99612.44;5014878;28;20530;-62
2021/04/07 06:12:58;;;;;;;13.38;7.22;;;;;;;3.37;62.41;99628.19;5014871;28;20100;-64
2021/04/07 06:15:24;;;;;;;8.90;6.85;;;;;;;3.47;62.31;99626.72;5012915;28;20128;-64
2021/04/07 06:18:01;;;;;;;11.57;6.35;;;;;;;3.61;62.51;99631.72;5015372;28;20254;-64
2021/04/07 06:20:33;;;;;;;11.95;6.90;;;;;;;3.74;61.74;99635.88;5015500;28;20026;-63
2021/04/07 06:22:59;;;;;;;9.18;6.68;;;;;;;3.83;61.65;99630.03;5015909;28;20076;-66
2021/04/07 06:25:27;;;;;;;19.02;8.48;;;;;;;3.94;61.65;99631.78;5015610;28;20029;-65
2021/04/07 06:27:54;;;;;;;17.40;8.27;;;;;;;4.07;61.40;99628.75;4998086;28;20072;-66
2021/04/07 06:30:24;;;;;;;14.70;7.40;;;;;;;4.21;60.75;99631.75;5014652;28;20053;-62
2021/04/07 06:32:50;;;;;;;13.23;7.70;;;;;;;4.29;59.82;99630.63;5014796;28;20042;-65
2021/04/07 06:35:15;;;;;;;15.77;6.88;;;;;;;4.40;60.25;99628.00;5013704;28;20143;-62
2021/04/07 06:37:40;;;;;;;11.27;6.97;;;;;;;4.49;59.25;99632.06;5010233;28;20038;-64
2021/04/07 06:40:07;;;;;;;18.02;6.95;;;;;;;4.61;59.27;99631.81;5015520;28;20437;-63
2021/04/07 06:42:32;;;;;;;9.65;6.22;;;;;;;4.74;58.58;99628.78;5015206;28;20333;-61
2021/04/07 06:44:59;;;;;;;11.20;6.85;;;;;;;4.86;58.36;99634.06;5014989;28;20033;-65
2021/04/07 06:47:25;;;;;;;13.13;6.85;;;;;;;4.98;58.47;99636.56;5015080;28;20184;-62
2021/04/07 06:49:52;;;;;;;11.32;6.97;;;;;;;5.08;57.76;99635.06;5014824;28;20444;-65
2021/04/07 06:52:20;;;;;;;9.75;6.05;;;;;;;5.23;57.70;99639.59;5014311;28;20046;-61
2021/04/07 06:54:47;;;;;;;11.52;6.90;;;;;;;5.40;56.79;99640.91;5013653;28;20443;-63
2021/04/07 06:57:15;;;;;;;9.30;6.63;;;;;;;5.53;56.96;99648.59;5013898;28;20041;-63
2021/04/07 06:59:43;;;;;;;12.93;6.03;;;;;;;5.69;55.78;99645.50;5013811;28;20034;-62
2021/04/07 07:02:09;;;;;;;10.25;6.18;;;;;;;5.80;55.37;99640.81;5015404;28;20034;-63
2021/04/07 07:04:34;;;;;;;13.00;5.78;;;;;;;5.90;54.49;99642.09;5014332;28;20053;-62
2021/04/07 07:07:00;;;;;;;9.90;5.68;;;;;;;5.99;54.13;99639.75;5012949;28;20042;-62
2021/04/07 07:09:25;;;;;;;10.90;5.60;;;;;;;6.08;52.89;99648.56;5014077;28;20034;-62
2021/04/07 07:11:51;;;;;;;10.90;5.80;;;;;;;6.17;52.63;99648.22;5016748;28;20033;-61
2021/04/07 07:14:18;;;;;;;8.95;5.35;;;;;;;6.25;53.23;99644.25;5018949;28;20049;-62
2021/04/07 07:16:47;;;;;;;7.90;5.55;;;;;;;6.33;52.59;99645.91;5018350;28;20049;-62
2021/04/07 07:19:27;;;;;;;12.35;5.25;;;;;;;6.44;52.83;99643.94;5018827;28;20030;-62
2021/04/07 07:21:54;;;;;;;12.20;5.50;;;;;;;6.53;51.98;99653.94;5018259;28;20042;-63
2021/04/07 07:24:29;;;;;;;8.43;5.80;;;;;;;6.61;51.31;99642.44;5015915;28;20030;-61
2021/04/07 07:26:55;;;;;;;14.13;6.25;;;;;;;6.72;51.72;99650.81;5017204;28;20080;-62
2021/04/07 07:29:32;;;;;;;15.35;6.25;;;;;;;6.88;51.26;99648.50;5017479;28;20033;-63
2021/04/07 07:32:00;;;;;;;16.23;6.20;;;;;;;7.05;51.42;99653.28;5015465;28;20033;-62
2021/04/07 07:34:26;;;;;;;11.63;5.63;;;;;;;7.13;49.83;99654.91;5017755;28;20092;-62
2021/04/07 07:36:53;;;;;;;6.80;5.25;;;;;;;7.26;50.34;99663.72;5017406;28;20387;-64
2021/04/07 07:39:26;;;;;;;8.90;5.63;;;;;;;7.41;50.35;99664.53;5000864;28;20033;-62
2021/04/07 07:41:56;;;;;;;8.43;5.55;;;;;;;7.52;50.03;99661.72;5016837;28;20045;-59
2021/04/07 07:44:23;;;;;;;8.88;5.80;;;;;;;7.66;49.16;99670.09;5018430;28;20029;-62
2021/04/07 07:47:01;;;;;;;8.82;5.93;;;;;;;7.78;49.30;99668.91;5015981;28;20405;-62
2021/04/07 07:49:27;;;;;;;10.27;6.15;;;;;;;7.88;48.58;99676.47;5016666;28;20042;-61
2021/04/07 07:51:53;;;;;;;11.25;5.45;;;;;;;7.99;47.36;99680.06;5016007;28;20040;-61
2021/04/07 07:54:20;;;;;;;13.13;5.85;;;;;;;8.03;47.21;99683.66;5015678;28;20048;-63
2021/04/07 07:56:46;;;;;;;9.93;5.10;;;;;;;8.09;45.75;99681.25;5016022;28;20481;-62
2021/04/07 07:59:12;;;;;;;10.48;5.50;;;;;;;8.10;45.68;99689.22;5017433;28;20418;-63
2021/04/07 08:01:45;;;;;;;8.23;5.93;;;;;;;8.13;45.42;99685.63;5017373;28;20033;-61
2021/04/07 08:04:10;;;;;;;5.60;4.40;;;;;;;8.18;44.00;99682.41;5017145;28;20056;-64
2021/04/07 08:06:36;;;;;;;8.80;4.97;;;;;;;8.20;44.31;99682.78;5016796;28;20061;-63
2021/04/07 08:09:03;;;;;;;10.77;5.55;;;;;;;8.24;45.57;99689.22;5017201;28;20034;-62
2021/04/07 08:11:29;;;;;;;9.18;6.28;;;;;;;8.35;44.29;99683.59;5017515;28;20109;-63
2021/04/07 08:13:55;;;;;;;10.93;5.90;;;;;;;8.49;43.83;99677.13;5017440;28;20124;-62
2021/04/07 08:16:22;;;;;;;14.90;5.72;;;;;;;8.52;43.81;99682.75;5017893;28;20422;-63
2021/04/07 08:18:49;;;;;;;7.60;4.78;;;;;;;8.61;43.10;99685.09;5017318;28;20448;-62
2021/04/07 08:21:19;;;;;;;6.65;4.43;;;;;;;8.66;40.92;99687.47;5017670;28;20030;-62
2021/04/07 08:23:50;;;;;;;5.53;4.13;;;;;;;8.68;40.40;99685.06;5016932;28;20026;-62
2021/04/07 08:26:16;;;;;;;12.57;5.43;;;;;;;8.71;41.21;99680.66;5016685;28;20057;-62
2021/04/07 08:28:42;;;;;;;9.52;4.40;;;;;;;8.78;41.49;99691.84;5015646;28;20452;-63
2021/04/07 08:31:15;;;;;;;7.10;4.40;;;;;;;8.80;40.19;99690.22;5015495;28;20034;-63
2021/04/07 08:33:46;;;;;;;8.48;4.57;;;;;;;8.87;39.97;99686.59;5016605;28;20034;-62
2021/04/07 08:36:11;;;;;;;9.63;4.30;;;;;;;8.94;39.75;99689.34;5017132;28;20041;-62
2021/04/07 08:38:37;;;;;;;12.68;4.18;;;;;;;9.02;38.21;99690.09;5017340;28;20030;-61
2021/04/07 08:41:09;;;;;;;7.18;4.25;;;;;;;9.05;37.66;99687.31;5017405;28;20026;-62
2021/04/07 08:43:35;;;;;;;28.08;5.88;;;;;;;9.13;38.33;99690.84;5017825;28;20036;-61
2021/04/07 08:46:14;;;;;;;11.77;4.72;;;;;;;9.22;39.36;99688.38;5017397;28;20329;-62
2021/04/07 08:48:40;;;;;;;12.70;4.95;;;;;;;9.34;38.96;99698.34;5016545;28;20120;-63
2021/04/07 08:51:08;;;;;;;10.73;4.47;;;;;;;9.43;38.51;99690.25;5017314;28;20144;-61
2021/04/07 08:53:39;;;;;;;10.05;4.35;;;;;;;9.50;37.89;99699.41;5017027;28;20048;-62
2021/04/07 08:56:13;;;;;;;5.38;3.60;;;;;;;9.55;38.56;99693.34;5017227;28;20325;-63
2021/04/07 08:58:50;;;;;;;11.80;3.80;;;;;;;9.66;37.92;99687.66;5013261;28;20302;-63
2021/04/07 09:01:20;;;;;;;12.90;6.78;;;;;;;9.70;36.27;99696.06;5015316;28;20061;-62
2021/04/07 09:03:45;;;;;;;12.27;3.80;;;;;;;9.73;35.67;99710.03;5015187;28;20034;-62
2021/04/07 09:06:14;;;;;;;14.10;3.55;;;;;;;9.70;35.59;99698.84;5015499;28;21080;-62
2021/04/07 09:08:54;;;;;;;8.93;4.05;;;;;;;9.75;35.32;99701.22;5016060;28;20053;-62
2021/04/07 09:11:38;;;;;;;7.88;3.42;;;;;;;9.81;36.33;99710.78;5014792;28;20029;-62
2021/04/07 09:14:05;;;;;;;6.20;3.60;;;;;;;9.89;34.93;99717.94;5015522;28;20079;-62
2021/04/07 09:16:41;;;;;;;10.05;4.15;;;;;;;9.81;36.02;99722.78;5015367;28;20038;-63
2021/04/07 09:19:19;;;;;;;10.15;4.05;;;;;;;9.79;35.98;99713.19;5012984;28;20030;-62
2021/04/07 09:22:06;;;;;;;8.30;4.05;;;;;;;9.82;36.69;99723.59;5014580;28;20418;-63
2021/04/07 09:24:40;;;;;;;6.22;3.55;;;;;;;9.89;36.57;99715.13;5015491;28;20036;-62
2021/04/07 09:27:08;;;;;;;8.98;5.13;;;;;;;9.99;36.65;99717.03;5015247;28;20042;-62
2021/04/07 09:29:39;;;;;;;11.27;4.43;;;;;;;10.09;37.94;99710.50;5016154;28;20033;-62
2021/04/07 09:32:14;;;;;;;;;;;;;;;10.14;35.39;99724.13;5015000;28;20314;-62
2021/04/07 09:34:40;;;;;;;8.68;3.53;;;;;;;10.09;34.92;99727.38;5014988;28;19921;-61
2021/04/07 09:37:06;;;;;;;7.32;4.03;;;;;;;10.07;36.34;99721.38;5015972;28;20033;-62
2021/04/07 09:39:31;;;;;;;11.52;3.95;;;;;;;10.11;37.34;99724.94;5016638;28;20291;-62
2021/04/07 09:41:57;;;;;;;18.60;5.30;;;;;;;10.25;37.13;99720.44;5016068;28;20377;-62
2021/04/07 09:44:23;;;;;;;13.02;5.22;;;;;;;10.36;36.82;99719.09;5016297;28;20417;-62
2021/04/07 09:46:55;;;;;;;8.15;3.92;;;;;;;10.40;35.52;99724.69;5016414;28;20037;-62
2021/04/07 09:49:22;;;;;;;;;;;;;;;10.38;36.07;99727.91;5015581;28;20057;-63
2021/04/07 09:51:51;;;;;;;10.45;4.10;;;;;;;10.29;34.40;99729.63;5014631;28;19917;-62
2021/04/07 09:54:24;;;;;;;6.28;3.42;;;;;;;10.18;34.76;99738.94;4994236;28;20034;-63
2021/04/07 09:56:53;;;;;;;4.53;3.28;;;;;;;10.14;34.40;99728.94;5000432;28;20036;-63
2021/04/07 09:59:29;;;;;;;7.95;3.50;;;;;;;10.17;34.70;99733.72;5018650;28;20042;-63
2021/04/07 10:01:54;;;;;;;7.05;3.58;;;;;;;10.17;34.37;99731.72;5015738;28;20128;-61
2021/04/07 10:04:25;;;;;;;24.40;4.85;;;;;;;10.15;35.43;99747.38;5002749;28;20121;-63
2021/04/07 10:06:50;;;;;;;6.05;3.80;;;;;;;10.11;36.25;99736.16;5016128;28;20038;-63
2021/04/07 10:09:15;;;;;;;8.85;5.00;;;;;;;10.15;36.22;99731.34;5016154;28;20056;-63
2021/04/07 10:11:42;;;;;;;21.33;4.93;;;;;;;10.25;36.38;99752.13;4998438;28;20049;-63
2021/04/07 10:14:09;;;;;;;4.97;2.78;;;;;;;10.41;33.47;99748.78;5015945;28;20042;-64
2021/04/07 10:16:37;;;;;;;8.73;3.88;;;;;;;10.53;34.39;99743.41;5015461;28;20068;-63
2021/04/07 10:19:07;;;;;;;12.77;2.90;;;;;;;10.63;34.31;99747.31;5016318;28;20364;-62
2021/04/07 10:21:33;;;;;;;5.50;3.17;;;;;;;10.68;34.48;99748.84;5016045;28;20096;-63
2021/04/07 10:24:00;;;;;;;5.95;3.67;;;;;;;10.76;33.93;99742.75;5007614;28;20025;-64
2021/04/07 10:26:26;;;;;;;13.27;3.72;;;;;;;10.87;34.75;99747.44;5015856;28;20325;-62
2021/04/07 10:28:58;;;;;;;27.23;5.13;;;;;;;10.90;33.77;99757.84;5015279;28;20133;-63
2021/04/07 10:31:25;;;;;;;6.78;3.97;;;;;;;10.79;33.44;99755.16;5015805;28;20118;-65
2021/04/07 10:34:07;;;;;;;11.90;4.68;;;;;;;10.74;34.52;99753.63;5015198;28;20551;-63
2021/04/07 10:36:35;;;;;;;6.15;3.70;;;;;;;10.79;34.12;99755.16;5015384;28;20038;-63
2021/04/07 10:39:15;;;;;;;6.20;3.42;;;;;;;10.85;33.38;99750.66;4997888;28;20036;-62
2021/04/07 10:41:46;;;;;;;10.05;4.05;;;;;;;10.95;33.66;99760.19;5010254;28;20033;-62
2021/04/07 10:44:25;;;;;;;8.05;3.97;;;;;;;11.02;33.69;99765.75;5008996;28;20052;-62
2021/04/07 10:46:51;;;;;;;8.70;3.25;;;;;;;11.05;32.73;99764.88;5003035;28;20384;-62
2021/04/07 10:49:17;;;;;;;4.15;3.17;;;;;;;11.02;32.76;99760.91;5022105;28;20087;-62
2021/04/07 10:51:44;;;;;;;5.88;3.10;;;;;;;11.06;32.15;99764.47;5022376;28;20034;-63
2021/04/07 10:54:10;;;;;;;3.47;2.92;;;;;;;11.11;32.58;99764.00;5022333;28;20098;-60
2021/04/07 10:56:36;;;;;;;6.47;3.67;;;;;;;11.22;32.88;99774.31;5022184;28;20674;-62
2021/04/07 10:59:05;;;;;;;5.88;4.00;;;;;;;11.30;31.63;99761.75;5022080;28;20037;-63
2021/04/07 11:01:33;;;;;;;8.95;3.85;;;;;;;11.19;30.56;99777.97;5022134;28;20044;-61
2021/04/07 11:04:10;;;;;;;6.28;3.28;;;;;;;11.07;31.85;99770.88;5028387;28;20034;-64
2021/04/07 11:06:35;;;;;;;11.73;4.22;;;;;;;11.01;32.42;99778.19;5021981;28;20037;-62
2021/04/07 11:09:00;;;;;;;10.55;3.65;;;;;;;11.08;32.58;99767.66;5021907;28;20033;-62
2021/04/07 11:11:26;;;;;;;14.25;3.35;;;;;;;11.05;31.00;99787.38;5022058;28;20029;-62
2021/04/07 11:13:55;;;;;;;5.95;2.47;;;;;;;11.07;31.29;99782.13;5021773;28;20121;-61
2021/04/07 11:16:29;;;;;;;3.78;2.65;;;;;;;11.13;31.09;99772.81;5022234;28;20048;-62
2021/04/07 11:18:55;;;;;;;5.47;2.42;;;;;;;11.23;31.92;99779.53;5004452;28;20034;-62
2021/04/07 11:21:20;;;;;;;2.80;1.98;;;;;;;11.32;30.60;99774.19;5021563;28;20038;-62
2021/04/07 11:23:45;;;;;;;5.82;2.28;;;;;;;11.36;31.01;99783.34;5021324;28;20033;-62
2021/04/07 11:26:11;;;;;;;8.32;2.30;;;;;;;11.35;30.21;99778.94;5021713;28;20049;-62
2021/04/07 11:28:36;;;;;;;4.55;2.40;;;;;;;11.41;30.46;99782.88;5021435;28;20325;-61
2021/04/07 11:34:36;;;;;;;12.63;2.97;;;;;;;11.48;31.25;99786.81;5021611;28;20030;-62
2021/04/07 11:46:33;;;;;;;12.85;2.50;;;;;;;11.41;29.65;99784.91;5022200;28;20033;-60
2021/04/07 11:48:58;;;;;;;9.80;2.65;;;;;;;11.44;30.40;99790.47;5020676;28;20046;-62